createdAt,value
2018-01-15T00:10:38.685Z,102004
2018-01-15T00:13:07.095Z,101997
2018-01-15T00:18:19.634Z,101996
2018-01-15T00:20:48.070Z,101996
2018-01-15T00:23:16.986Z,101994
2018-01-15T00:25:46.256Z,101977
2018-01-15T00:31:18.989Z,101969
2018-01-15T00:33:49.196Z,101968
2018-01-15T00:36:19.754Z,101963
2018-01-15T00:38:52.168Z,101965
2018-01-15T00:41:33.145Z,101968
2018-01-15T01:09:51.803Z,101896
2018-01-15T01:26:35.032Z,101854
2018-01-15T01:29:05.626Z,101853
2018-01-15T01:31:50.394Z,101843
2018-01-15T01:34:27.389Z,101844
2018-01-15T01:36:55.961Z,101835
2018-01-15T01:39:25.166Z,101831
2018-01-15T01:41:56.422Z,101834
2018-01-15T01:44:31.360Z,101826
2018-01-15T01:47:28.348Z,101822
2018-01-15T01:49:59.281Z,101810
2018-01-15T01:52:30.122Z,101804
2018-01-15T01:55:13.476Z,101809
2018-01-15T02:23:56.961Z,101784
2018-01-15T03:12:35.114Z,101688
2018-01-15T03:17:59.665Z,101675
2018-01-15T03:20:29.958Z,101674
2018-01-15T03:22:59.451Z,101675
2018-01-15T03:25:29.533Z,101667
2018-01-15T03:27:58.812Z,101674
2018-01-15T03:30:29.341Z,101663
2018-01-15T03:33:00.876Z,101656
2018-01-15T03:35:31.036Z,101647
2018-01-15T03:38:01.201Z,101636
2018-01-15T03:40:29.736Z,101636
2018-01-15T03:42:58.246Z,101619
2018-01-15T03:45:27.630Z,101613
2018-01-15T03:48:06.661Z,101617
2018-01-15T03:50:36.331Z,101607
2018-01-15T03:53:06.408Z,101602
2018-01-15T03:55:35.664Z,101594
2018-01-15T03:58:04.069Z,101588
2018-01-15T04:00:33.541Z,101593
2018-01-15T04:03:02.067Z,101586
2018-01-15T04:05:30.402Z,101587
2018-01-15T04:08:00.123Z,101590
2018-01-15T04:10:40.402Z,101584
2018-01-15T04:13:14.811Z,101572
2018-01-15T04:15:43.156Z,101561
2018-01-15T04:18:11.436Z,101555
2018-01-15T04:20:55.914Z,101559
2018-01-15T04:23:37.862Z,101547
2018-01-15T04:26:07.141Z,101543
2018-01-15T04:28:49.230Z,101542
2018-01-15T04:31:18.119Z,101529
2018-01-15T04:33:47.684Z,101533
2018-01-15T04:36:17.019Z,101534
2018-01-15T04:38:45.570Z,101515
2018-01-15T04:41:13.902Z,101516
2018-01-15T04:43:42.180Z,101518
2018-01-15T04:46:10.556Z,101512
2018-01-15T04:48:39.079Z,101501
2018-01-15T04:51:08.361Z,101505
2018-01-15T04:53:38.841Z,101495
2018-01-15T04:56:11.061Z,101486
2018-01-15T04:58:46.279Z,101491
2018-01-15T05:01:15.385Z,101486
2018-01-15T05:03:43.746Z,101494
2018-01-15T05:06:13.836Z,101481
2018-01-15T05:08:43.114Z,101480
2018-01-15T05:11:12.533Z,101469
2018-01-15T05:13:40.898Z,101460
2018-01-15T05:16:11.615Z,101463
2018-01-15T05:18:55.644Z,101459
2018-01-15T05:21:24.316Z,101450
2018-01-15T05:23:52.622Z,101445
2018-01-15T05:26:21.024Z,101435
2018-01-15T05:28:51.449Z,101430
2018-01-15T05:31:20.750Z,101426
2018-01-15T05:33:49.219Z,101422
2018-01-15T05:36:18.434Z,101421
2018-01-15T05:38:48.392Z,101417
2018-01-15T05:41:17.693Z,101408
2018-01-15T05:43:46.221Z,101407
2018-01-15T05:46:14.755Z,101411
2018-01-15T05:48:44.150Z,101405
2018-01-15T05:51:12.613Z,101403
2018-01-15T05:53:41.003Z,101408
2018-01-15T05:56:11.860Z,101404
2018-01-15T05:58:45.019Z,101402
2018-01-15T06:01:14.093Z,101391
2018-01-15T06:03:42.627Z,101388
2018-01-15T06:06:12.699Z,101386
2018-01-15T06:08:41.149Z,101373
2018-01-15T06:11:13.754Z,101368
2018-01-15T06:13:42.225Z,101365
2018-01-15T06:16:11.221Z,101367
2018-01-15T06:18:46.995Z,101351
2018-01-15T06:21:16.948Z,101344
2018-01-15T06:23:47.407Z,101341
2018-01-15T06:26:45.813Z,101345
2018-01-15T06:29:14.607Z,101344
2018-01-15T06:31:52.364Z,101334
2018-01-15T06:34:20.914Z,101339
2018-01-15T06:37:00.595Z,101328
2018-01-15T06:40:49.967Z,101314
2018-01-15T06:43:20.801Z,101311
2018-01-15T06:45:50.029Z,101307
2018-01-15T06:48:19.377Z,101300
2018-01-15T06:50:50.452Z,101297
2018-01-15T06:53:19.342Z,101277
2018-01-15T06:55:56.519Z,101287
2018-01-15T06:58:31.900Z,101276
2018-01-15T07:01:06.686Z,101265
2018-01-15T07:03:36.328Z,101257
2018-01-15T07:06:06.387Z,101253
2018-01-15T07:08:36.162Z,101243
2018-01-15T07:11:06.461Z,101250
2018-01-15T07:13:35.335Z,101243
2018-01-15T07:16:07.177Z,101249
2018-01-15T07:18:46.173Z,101249
2018-01-15T07:21:21.411Z,101242
2018-01-15T07:27:41.694Z,101238
2018-01-15T07:30:12.562Z,101230
2018-01-15T07:32:45.645Z,101223
2018-01-15T07:35:15.861Z,101217
2018-01-15T07:37:50.696Z,101216
2018-01-15T07:40:21.331Z,101215
2018-01-15T07:42:49.834Z,101210
2018-01-15T07:45:19.439Z,101206
2018-01-15T07:47:48.097Z,101211
2018-01-15T07:50:39.208Z,101199
2018-01-15T07:53:08.785Z,101198
2018-01-15T07:55:38.486Z,101198
2018-01-15T08:01:20.225Z,101187
2018-01-15T08:06:39.482Z,101185
2018-01-15T08:09:10.789Z,101177
2018-01-15T08:11:41.075Z,101176
2018-01-15T08:14:10.475Z,101167
2018-01-15T08:16:44.035Z,101164
2018-01-15T08:19:14.326Z,101150
2018-01-15T08:21:51.729Z,101142
2018-01-15T08:24:20.290Z,101139
2018-01-15T08:29:30.351Z,101122
2018-01-15T08:31:59.573Z,101118
2018-01-15T08:34:27.889Z,101113
2018-01-15T08:37:00.183Z,101110
2018-01-15T08:39:28.588Z,101105
2018-01-15T08:42:00.738Z,101114
2018-01-15T08:44:31.182Z,101102
2018-01-15T08:47:00.349Z,101091
2018-01-15T08:49:28.659Z,101083
2018-01-15T08:51:58.960Z,101087
2018-01-15T08:54:28.133Z,101080
2018-01-15T08:56:56.468Z,101069
2018-01-15T08:59:25.550Z,101064
2018-01-15T09:01:53.956Z,101064
2018-01-15T09:04:22.180Z,101057
2018-01-15T09:06:50.533Z,101048
2018-01-15T09:09:18.750Z,101051
2018-01-15T09:11:47.106Z,101048
2018-01-15T09:14:16.244Z,101033
2018-01-15T09:16:45.371Z,101034
2018-01-15T09:19:13.681Z,101014
2018-01-15T09:21:43.875Z,101020
2018-01-15T09:24:12.208Z,101012
2018-01-15T09:26:41.325Z,101001
2018-01-15T09:29:09.596Z,101002
2018-01-15T09:31:40.737Z,101000
2018-01-15T09:34:09.003Z,100996
2018-01-15T09:36:37.279Z,100993
2018-01-15T09:39:05.571Z,100990
2018-01-15T09:41:33.826Z,100981
2018-01-15T09:44:11.176Z,100985
2018-01-15T09:46:53.336Z,100977
2018-01-15T09:49:21.679Z,100983
2018-01-15T09:51:50.472Z,100981
2018-01-15T09:54:18.983Z,100978
2018-01-15T09:56:47.415Z,100973
2018-01-15T10:02:40.136Z,100953
2018-01-15T10:08:41.220Z,100955
2018-01-15T10:11:09.665Z,100941
2018-01-15T10:13:38.851Z,100936
2018-01-15T10:18:58.044Z,100935
2018-01-15T10:21:27.288Z,100911
2018-01-15T10:23:56.533Z,100910
2018-01-15T10:26:34.720Z,100911
2018-01-15T10:29:03.160Z,100895
2018-01-15T10:31:35.376Z,100888
2018-01-15T10:34:03.702Z,100886
2018-01-15T10:36:35.157Z,100880
2018-01-15T10:39:03.775Z,100861
2018-01-15T10:45:07.326Z,100843
2018-01-15T10:47:35.822Z,100837
2018-01-15T10:50:05.458Z,100835
2018-01-15T10:52:34.884Z,100826
2018-01-15T10:55:05.243Z,100809
2018-01-15T10:57:34.501Z,100794
2018-01-15T11:00:03.548Z,100783
2018-01-15T11:02:34.477Z,100784
2018-01-15T11:05:11.039Z,100776
2018-01-15T11:07:39.431Z,100756
2018-01-15T11:10:08.084Z,100748
2018-01-15T11:12:38.417Z,100747
2018-01-15T11:15:10.684Z,100750
2018-01-15T11:17:41.800Z,100731
2018-01-15T11:20:10.147Z,100727
2018-01-15T11:22:38.491Z,100724
2018-01-15T11:25:06.797Z,100712
2018-01-15T11:27:35.110Z,100708
2018-01-15T11:30:05.077Z,100698
2018-01-15T11:32:33.349Z,100692
2018-01-15T11:35:02.482Z,100687
2018-01-15T11:37:31.699Z,100680
2018-01-15T11:39:59.968Z,100676
2018-01-15T11:42:29.093Z,100658
2018-01-15T11:45:12.706Z,100656
2018-01-15T11:47:41.893Z,100655
2018-01-15T11:50:11.085Z,100659
2018-01-15T11:52:40.239Z,100648
2018-01-15T11:55:08.508Z,100640
2018-01-15T11:57:38.006Z,100646
2018-01-15T12:00:07.359Z,100626
2018-01-15T12:02:35.631Z,100614
2018-01-15T12:05:05.449Z,100612
2018-01-15T12:07:33.701Z,100610
2018-01-15T12:10:02.113Z,100611
2018-01-15T12:12:30.362Z,100599
2018-01-15T12:14:58.903Z,100597
2018-01-15T12:17:27.309Z,100592
2018-01-15T12:19:56.464Z,100583
2018-01-15T12:22:24.761Z,100574
2018-01-15T12:24:53.059Z,100558
2018-01-15T12:27:21.422Z,100550
2018-01-15T12:29:49.733Z,100536
2018-01-15T12:32:19.318Z,100524
2018-01-15T12:34:47.640Z,100519
2018-01-15T12:37:16.069Z,100509
2018-01-15T12:39:44.427Z,100497
2018-01-15T12:42:12.721Z,100482
2018-01-15T12:44:41.002Z,100479
2018-01-15T12:47:09.269Z,100481
2018-01-15T12:49:37.611Z,100475
2018-01-15T12:52:05.899Z,100460
2018-01-15T12:54:34.182Z,100452
2018-01-15T12:57:02.471Z,100436
2018-01-15T12:59:30.784Z,100452
2018-01-15T13:01:59.970Z,100450
2018-01-15T13:04:28.268Z,100439
2018-01-15T13:06:57.376Z,100426
2018-01-15T13:09:25.629Z,100425
2018-01-15T13:11:54.702Z,100421
2018-01-15T13:14:23.077Z,100405
2018-01-15T13:16:51.484Z,100414
2018-01-15T13:19:19.860Z,100414
2018-01-15T13:21:48.103Z,100378
2018-01-15T13:24:16.514Z,100388
2018-01-15T13:26:44.821Z,100374
2018-01-15T13:29:13.076Z,100364
2018-01-15T13:31:41.448Z,100348
2018-01-15T13:34:09.759Z,100358
2018-01-15T13:36:38.134Z,100354
2018-01-15T13:39:07.228Z,100334
2018-01-15T13:41:35.622Z,100325
2018-01-15T13:44:04.086Z,100318
2018-01-15T13:46:33.273Z,100313
2018-01-15T13:49:01.655Z,100296
2018-01-15T13:51:29.986Z,100290
2018-01-15T13:53:59.081Z,100286
2018-01-15T13:56:27.325Z,100287
2018-01-15T13:58:55.572Z,100275
2018-01-15T14:01:23.837Z,100271
2018-01-15T14:03:52.131Z,100263
2018-01-15T14:06:20.600Z,100258
2018-01-15T14:08:49.032Z,100255
2018-01-15T14:11:17.462Z,100250
2018-01-15T14:13:45.840Z,100234
2018-01-15T14:16:14.981Z,100228
2018-01-15T14:19:02.239Z,100213
2018-01-15T14:21:30.690Z,100212
2018-01-15T14:24:02.860Z,100199
2018-01-15T14:26:54.792Z,100186
2018-01-15T14:29:24.103Z,100179
2018-01-15T14:31:52.548Z,100175
2018-01-15T14:34:21.674Z,100171
2018-01-15T14:36:50.010Z,100165
2018-01-15T14:39:18.321Z,100153
2018-01-15T14:41:49.290Z,100143
2018-01-15T14:44:17.558Z,100138
2018-01-15T14:46:58.664Z,100124
2018-01-15T14:49:27.802Z,100124
2018-01-15T14:51:57.451Z,100122
2018-01-15T14:54:25.798Z,100112
2018-01-15T14:56:54.237Z,100112
2018-01-15T14:59:22.653Z,100097
2018-01-15T15:01:52.262Z,100092
2018-01-15T15:04:57.725Z,100089
2018-01-15T15:07:33.742Z,100082
2018-01-15T15:10:02.808Z,100081
2018-01-15T15:26:23.450Z,100037
2018-01-15T15:28:51.877Z,100027
2018-01-15T15:31:20.264Z,100024
2018-01-15T15:33:49.411Z,100012
2018-01-15T15:36:17.782Z,100009
2018-01-15T15:38:46.267Z,100006
2018-01-15T15:41:14.730Z,100008
2018-01-15T15:43:43.166Z,99996
2018-01-15T15:46:12.362Z,99985
2018-01-15T15:48:41.011Z,99987
2018-01-15T15:51:10.257Z,99974
2018-01-15T15:53:38.551Z,99978
2018-01-15T15:56:06.902Z,99972
2018-01-15T15:58:35.924Z,99973
2018-01-15T16:01:05.562Z,99955
2018-01-15T16:03:34.764Z,99957
2018-01-15T16:06:04.214Z,99959
2018-01-15T16:08:34.066Z,99951
2018-01-15T16:11:02.596Z,99958
2018-01-15T16:13:31.590Z,99944
2018-01-15T16:16:00.898Z,99937
2018-01-15T16:18:38.501Z,99927
2018-01-15T16:21:06.877Z,99923
2018-01-15T16:23:36.150Z,99913
2018-01-15T16:26:04.668Z,99895
2018-01-15T16:28:34.090Z,99893
2018-01-15T16:31:03.464Z,99890
2018-01-15T16:33:36.119Z,99886
2018-01-15T16:36:07.268Z,99880
2018-01-15T16:38:36.352Z,99873
2018-01-15T16:41:09.639Z,99864
2018-01-15T16:43:38.073Z,99854
2018-01-15T16:46:06.625Z,99842
2018-01-15T16:48:35.800Z,99841
2018-01-15T16:51:05.312Z,99841
2018-01-15T16:53:33.630Z,99820
2018-01-15T16:56:04.284Z,99831
2018-01-15T16:58:32.556Z,99806
2018-01-15T17:01:12.460Z,99809
2018-01-15T17:03:41.788Z,99802
2018-01-15T17:06:17.402Z,99793
2018-01-15T17:08:47.922Z,99784
2018-01-15T17:11:16.222Z,99777
2018-01-15T17:13:46.250Z,99760
2018-01-15T17:16:15.524Z,99759
2018-01-15T17:18:43.823Z,99753
2018-01-15T17:21:12.130Z,99738
2018-01-15T17:23:40.534Z,99720
2018-01-15T17:26:10.432Z,99714
2018-01-15T17:28:40.884Z,99712
2018-01-15T17:31:09.331Z,99702
2018-01-15T17:33:41.458Z,99703
2018-01-15T17:36:10.019Z,99700
2018-01-15T17:38:39.315Z,99689
2018-01-15T17:41:07.778Z,99676
2018-01-15T17:43:36.326Z,99675
2018-01-15T17:46:04.714Z,99661
2018-01-15T17:48:34.064Z,99647
2018-01-15T17:51:02.467Z,99650
2018-01-15T17:53:30.766Z,99640
2018-01-15T17:56:04.339Z,99636
2018-01-15T17:58:32.663Z,99620
2018-01-15T18:01:00.878Z,99609
2018-01-15T18:03:29.927Z,99608
2018-01-15T18:05:58.156Z,99608
2018-01-15T18:08:32.655Z,99589
2018-01-15T18:11:13.981Z,99592
2018-01-15T18:13:42.272Z,99585
2018-01-15T18:18:45.799Z,99570
2018-01-15T18:21:14.171Z,99574
2018-01-15T18:23:42.559Z,99572
2018-01-15T18:26:10.868Z,99564
2018-01-15T18:28:39.247Z,99548
2018-01-15T18:31:07.717Z,99540
2018-01-15T18:33:36.106Z,99546
2018-01-15T18:36:11.069Z,99540
2018-01-15T18:39:04.350Z,99514
2018-01-15T18:41:44.970Z,99521
2018-01-15T18:44:26.890Z,99499
2018-01-15T18:47:01.505Z,99497
2018-01-15T18:49:29.786Z,99488
2018-01-15T19:05:11.780Z,99419
2018-01-15T19:07:56.316Z,99408
2018-01-15T19:10:28.609Z,99412
2018-01-15T19:22:47.652Z,99373
2018-01-15T19:25:15.956Z,99371
2018-01-15T19:27:44.251Z,99348
2018-01-15T19:30:12.601Z,99348
2018-01-15T19:32:40.930Z,99332
2018-01-15T19:35:20.966Z,99331
2018-01-15T19:37:50.332Z,99322
2018-01-15T19:40:19.386Z,99305
2018-01-15T19:42:47.661Z,99289
2018-01-15T19:45:21.746Z,99278
2018-01-15T19:47:55.615Z,99274
2018-01-15T19:50:39.613Z,99262
2018-01-15T19:53:17.499Z,99239
2018-01-15T19:55:52.810Z,99243
2018-01-15T19:58:29.562Z,99233
2018-01-15T20:01:04.439Z,99232
2018-01-15T20:03:38.390Z,99219
2018-01-15T20:06:13.143Z,99210
2018-01-15T20:08:51.471Z,99208
2018-01-15T20:11:20.545Z,99208
2018-01-15T20:13:49.694Z,99198
2018-01-15T20:16:18.931Z,99176
2018-01-15T20:18:47.286Z,99189
2018-01-15T20:21:15.538Z,99178
2018-01-15T20:23:43.798Z,99169
2018-01-15T20:26:12.047Z,99155
2018-01-15T20:28:40.586Z,99153
2018-01-15T20:31:09.759Z,99142
2018-01-15T20:33:38.070Z,99134
2018-01-15T20:36:06.950Z,99124
2018-01-15T20:38:35.202Z,99124
2018-01-15T20:41:04.392Z,99111
2018-01-15T20:43:33.632Z,99105
2018-01-15T20:46:04.880Z,99106
2018-01-15T20:48:33.224Z,99081
2018-01-15T20:51:01.485Z,99074
2018-01-15T20:53:30.795Z,99078
2018-01-15T20:55:59.212Z,99067
2018-01-15T20:58:27.778Z,99055
2018-01-15T21:00:57.235Z,99049
2018-01-15T21:03:26.615Z,99049
2018-01-15T21:05:56.602Z,99040
2018-01-15T21:08:24.968Z,99022
2018-01-15T21:10:54.110Z,99016
2018-01-15T21:13:23.135Z,99018
2018-01-15T21:15:51.398Z,99006
2018-01-15T21:18:19.860Z,98999
2018-01-15T21:21:03.132Z,98991
2018-01-15T21:23:31.538Z,98983
2018-01-15T21:26:03.904Z,98974
2018-01-15T21:28:35.987Z,98968
2018-01-15T21:31:04.646Z,98947
2018-01-15T21:33:34.312Z,98951
2018-01-15T21:36:04.831Z,98944
2018-01-15T21:38:36.650Z,98943
2018-01-15T21:41:07.129Z,98930
2018-01-15T21:43:35.470Z,98931
2018-01-15T21:46:03.808Z,98921
2018-01-15T21:48:32.151Z,98917
2018-01-15T21:51:11.072Z,98898
2018-01-15T21:53:40.217Z,98893
2018-01-15T21:56:08.643Z,98882
2018-01-15T21:58:38.248Z,98882
2018-01-15T22:01:07.094Z,98877
2018-01-15T22:03:45.107Z,98873
2018-01-15T22:06:15.488Z,98861
2018-01-15T22:08:49.903Z,98845
2018-01-15T22:11:18.512Z,98847
2018-01-15T22:13:46.974Z,98833
2018-01-15T22:16:15.434Z,98828
2018-01-15T22:18:43.880Z,98821
2018-01-15T22:21:12.328Z,98820
2018-01-15T22:23:40.982Z,98806
2018-01-15T22:26:09.496Z,98813
2018-01-15T22:28:47.342Z,98815
2018-01-15T22:31:16.121Z,98788
2018-01-15T22:33:45.569Z,98794
2018-01-15T22:36:14.218Z,98791
2018-01-15T22:38:54.047Z,98785
2018-01-15T22:41:30.545Z,98785
2018-01-15T22:44:01.228Z,98777
2018-01-15T22:49:06.221Z,98768
2018-01-15T22:51:36.043Z,98764
